sensor_id;sensor_type;location;lat;lon;timestamp;temperature;humidity
64209;DHT22;50527;52.414;13.226;2024-03-02T00:02:11;7.80;99.90
64209;DHT22;50527;52.414;13.226;2024-03-02T00:04:36;7.80;99.90
64209;DHT22;50527;52.414;13.226;2024-03-02T00:07:02;7.80;99.90
64209;DHT22;50527;52.414;13.226;2024-03-02T00:09:29;7.80;99.90
64209;DHT22;50527;52.414;13.226;2024-03-02T00:11:54;7.80;99.90
64209;DHT22;50527;52.414;13.226;2024-03-02T00:14:20;7.80;99.90
64209;DHT22;50527;52.414;13.226;2024-03-02T00:16:46;7.80;99.90
64209;DHT22;50527;52.414;13.226;2024-03-02T00:19:11;7.80;99.90
64209;DHT22;50527;52.414;13.226;2024-03-02T00:21:37;7.90;99.90
64209;DHT22;50527;52.414;13.226;2024-03-02T00:24:32;7.90;99.90
64209;DHT22;50527;52.414;13.226;2024-03-02T00:26:59;7.90;99.90
64209;DHT22;50527;52.414;13.226;2024-03-02T00:29:24;7.90;99.90
64209;DHT22;50527;52.414;13.226;2024-03-02T00:31:50;7.90;99.90
64209;DHT22;50527;52.414;13.226;2024-03-02T00:34:17;7.90;99.90
64209;DHT22;50527;52.414;13.226;2024-03-02T00:36:43;7.90;99.90
64209;DHT22;50527;52.414;13.226;2024-03-02T00:39:08;7.90;99.90
64209;DHT22;50527;52.414;13.226;2024-03-02T00:41:34;7.90;99.90
64209;DHT22;50527;52.414;13.226;2024-03-02T00:46:29;8.00;99.90
64209;DHT22;50527;52.414;13.226;2024-03-02T00:48:59;7.90;99.90
64209;DHT22;50527;52.414;13.226;2024-03-02T00:51:26;7.90;99.90
64209;DHT22;50527;52.414;13.226;2024-03-02T00:53:54;7.90;99.90
64209;DHT22;50527;52.414;13.226;2024-03-02T00:56:23;7.90;99.90
64209;DHT22;50527;52.414;13.226;2024-03-02T00:58:50;8.00;99.90
64209;DHT22;50527;52.414;13.226;2024-03-02T01:01:15;8.00;99.90
64209;DHT22;50527;52.414;13.226;2024-03-02T01:03:41;8.00;99.90
64209;DHT22;50527;52.414;13.226;2024-03-02T01:06:07;7.90;99.90
64209;DHT22;50527;52.414;13.226;2024-03-02T01:08:34;8.00;99.90
64209;DHT22;50527;52.414;13.226;2024-03-02T01:11:00;8.00;99.90
64209;DHT22;50527;52.414;13.226;2024-03-02T01:13:25;8.00;99.90
64209;DHT22;50527;52.414;13.226;2024-03-02T01:15:51;8.00;99.90
64209;DHT22;50527;52.414;13.226;2024-03-02T01:18:17;8.10;99.90
64209;DHT22;50527;52.414;13.226;2024-03-02T01:20:42;8.00;99.90
64209;DHT22;50527;52.414;13.226;2024-03-02T01:23:08;8.00;99.90
64209;DHT22;50527;52.414;13.226;2024-03-02T01:25:33;8.00;99.90
64209;DHT22;50527;52.414;13.226;2024-03-02T01:27:59;8.00;99.90
64209;DHT22;50527;52.414;13.226;2024-03-02T01:30:24;8.00;99.90
64209;DHT22;50527;52.414;13.226;2024-03-02T01:32:49;8.00;99.90
64209;DHT22;50527;52.414;13.226;2024-03-02T01:35:15;8.00;99.90
64209;DHT22;50527;52.414;13.226;2024-03-02T01:37:41;8.00;99.90
64209;DHT22;50527;52.414;13.226;2024-03-02T01:40:07;8.00;99.90
64209;DHT22;50527;52.414;13.226;2024-03-02T01:42:36;8.00;99.90
64209;DHT22;50527;52.414;13.226;2024-03-02T01:45:02;8.00;99.90
64209;DHT22;50527;52.414;13.226;2024-03-02T01:47:27;8.00;99.90
64209;DHT22;50527;52.414;13.226;2024-03-02T01:49:53;8.00;99.90
64209;DHT22;50527;52.414;13.226;2024-03-02T01:52:18;8.00;99.90
64209;DHT22;50527;52.414;13.226;2024-03-02T01:54:44;8.00;99.90
64209;DHT22;50527;52.414;13.226;2024-03-02T01:57:09;8.10;99.90
64209;DHT22;50527;52.414;13.226;2024-03-02T01:59:35;8.10;99.90
64209;DHT22;50527;52.414;13.226;2024-03-02T02:02:01;8.00;99.90
64209;DHT22;50527;52.414;13.226;2024-03-02T02:04:26;8.00;99.90
64209;DHT22;50527;52.414;13.226;2024-03-02T02:06:53;8.00;99.90
64209;DHT22;50527;52.414;13.226;2024-03-02T02:09:19;8.00;99.90
64209;DHT22;50527;52.414;13.226;2024-03-02T02:11:44;8.00;99.90
64209;DHT22;50527;52.414;13.226;2024-03-02T02:14:10;8.00;99.90
64209;DHT22;50527;52.414;13.226;2024-03-02T02:16:36;8.00;99.90
64209;DHT22;50527;52.414;13.226;2024-03-02T02:19:02;8.00;99.90
64209;DHT22;50527;52.414;13.226;2024-03-02T02:21:28;8.00;99.90
64209;DHT22;50527;52.414;13.226;2024-03-02T02:23:54;7.90;99.90
64209;DHT22;50527;52.414;13.226;2024-03-02T02:26:19;8.00;99.90
64209;DHT22;50527;52.414;13.226;2024-03-02T02:28:45;7.90;99.90
64209;DHT22;50527;52.414;13.226;2024-03-02T02:31:15;7.80;99.90
64209;DHT22;50527;52.414;13.226;2024-03-02T02:33:41;7.80;99.90
64209;DHT22;50527;52.414;13.226;2024-03-02T02:36:07;7.70;99.90
64209;DHT22;50527;52.414;13.226;2024-03-02T02:38:38;7.60;99.90
64209;DHT22;50527;52.414;13.226;2024-03-02T02:41:04;7.70;99.90
64209;DHT22;50527;52.414;13.226;2024-03-02T02:43:29;7.70;99.90
64209;DHT22;50527;52.414;13.226;2024-03-02T02:45:55;7.70;99.90
64209;DHT22;50527;52.414;13.226;2024-03-02T02:48:20;7.80;99.90
64209;DHT22;50527;52.414;13.226;2024-03-02T02:50:46;7.80;99.90
64209;DHT22;50527;52.414;13.226;2024-03-02T02:53:11;7.70;99.90
64209;DHT22;50527;52.414;13.226;2024-03-02T02:55:37;7.70;99.90
64209;DHT22;50527;52.414;13.226;2024-03-02T02:58:06;7.70;99.90
64209;DHT22;50527;52.414;13.226;2024-03-02T03:00:31;7.70;99.90
64209;DHT22;50527;52.414;13.226;2024-03-02T03:02:57;7.70;99.90
64209;DHT22;50527;52.414;13.226;2024-03-02T03:05:22;7.60;99.90
64209;DHT22;50527;52.414;13.226;2024-03-02T03:07:48;7.70;99.90
64209;DHT22;50527;52.414;13.226;2024-03-02T03:10:17;7.80;99.90
64209;DHT22;50527;52.414;13.226;2024-03-02T03:12:42;7.80;99.90
64209;DHT22;50527;52.414;13.226;2024-03-02T03:15:09;7.90;99.90
64209;DHT22;50527;52.414;13.226;2024-03-02T03:17:35;7.80;99.90
64209;DHT22;50527;52.414;13.226;2024-03-02T03:20:02;7.90;99.90
64209;DHT22;50527;52.414;13.226;2024-03-02T03:22:29;7.90;99.90
64209;DHT22;50527;52.414;13.226;2024-03-02T03:24:55;7.90;99.90
64209;DHT22;50527;52.414;13.226;2024-03-02T03:27:21;7.90;99.90
64209;DHT22;50527;52.414;13.226;2024-03-02T03:29:46;8.00;99.90
64209;DHT22;50527;52.414;13.226;2024-03-02T03:32:12;7.90;99.90
64209;DHT22;50527;52.414;13.226;2024-03-02T03:34:37;8.00;99.90
64209;DHT22;50527;52.414;13.226;2024-03-02T03:37:03;8.10;99.90
64209;DHT22;50527;52.414;13.226;2024-03-02T03:39:29;8.10;99.90
64209;DHT22;50527;52.414;13.226;2024-03-02T03:41:54;8.20;99.90
64209;DHT22;50527;52.414;13.226;2024-03-02T03:44:20;8.10;99.90
64209;DHT22;50527;52.414;13.226;2024-03-02T03:46:45;8.20;99.90
64209;DHT22;50527;52.414;13.226;2024-03-02T03:49:11;8.20;99.90
64209;DHT22;50527;52.414;13.226;2024-03-02T03:51:36;8.20;99.90
64209;DHT22;50527;52.414;13.226;2024-03-02T03:54:02;8.30;99.90
64209;DHT22;50527;52.414;13.226;2024-03-02T03:56:27;8.20;99.90
64209;DHT22;50527;52.414;13.226;2024-03-02T03:58:53;8.30;99.90
64209;DHT22;50527;52.414;13.226;2024-03-02T04:01:18;8.20;99.90
64209;DHT22;50527;52.414;13.226;2024-03-02T04:03:44;8.20;99.90
64209;DHT22;50527;52.414;13.226;2024-03-02T04:06:10;8.20;99.90
64209;DHT22;50527;52.414;13.226;2024-03-02T04:08:35;8.20;99.90
64209;DHT22;50527;52.414;13.226;2024-03-02T04:11:01;8.20;99.90
64209;DHT22;50527;52.414;13.226;2024-03-02T04:13:28;8.20;99.90
64209;DHT22;50527;52.414;13.226;2024-03-02T04:15:53;8.30;99.90
64209;DHT22;50527;52.414;13.226;2024-03-02T04:18:19;8.30;99.90
64209;DHT22;50527;52.414;13.226;2024-03-02T04:20:44;8.30;99.90
64209;DHT22;50527;52.414;13.226;2024-03-02T04:23:10;8.30;99.90
64209;DHT22;50527;52.414;13.226;2024-03-02T04:25:35;8.40;99.90
64209;DHT22;50527;52.414;13.226;2024-03-02T04:28:01;8.30;99.90
64209;DHT22;50527;52.414;13.226;2024-03-02T04:30:27;8.40;99.90
64209;DHT22;50527;52.414;13.226;2024-03-02T04:32:52;8.40;99.90
64209;DHT22;50527;52.414;13.226;2024-03-02T04:35:17;8.40;99.90
64209;DHT22;50527;52.414;13.226;2024-03-02T04:37:43;8.40;99.90
64209;DHT22;50527;52.414;13.226;2024-03-02T04:40:09;8.50;99.90
64209;DHT22;50527;52.414;13.226;2024-03-02T04:42:35;8.50;99.90
64209;DHT22;50527;52.414;13.226;2024-03-02T04:45:01;8.40;99.90
64209;DHT22;50527;52.414;13.226;2024-03-02T04:47:26;8.40;99.90
64209;DHT22;50527;52.414;13.226;2024-03-02T04:49:52;8.40;99.90
64209;DHT22;50527;52.414;13.226;2024-03-02T04:52:17;8.40;99.90
64209;DHT22;50527;52.414;13.226;2024-03-02T04:54:43;8.40;99.90
64209;DHT22;50527;52.414;13.226;2024-03-02T04:57:27;8.40;99.90
64209;DHT22;50527;52.414;13.226;2024-03-02T04:59:53;8.40;99.90
64209;DHT22;50527;52.414;13.226;2024-03-02T05:02:18;8.40;99.90
64209;DHT22;50527;52.414;13.226;2024-03-02T05:04:44;8.40;99.90
64209;DHT22;50527;52.414;13.226;2024-03-02T05:07:09;8.40;99.90
64209;DHT22;50527;52.414;13.226;2024-03-02T05:09:35;8.40;99.90
64209;DHT22;50527;52.414;13.226;2024-03-02T05:12:01;8.40;99.90
64209;DHT22;50527;52.414;13.226;2024-03-02T05:14:46;8.50;99.90
64209;DHT22;50527;52.414;13.226;2024-03-02T05:17:11;8.50;99.90
64209;DHT22;50527;52.414;13.226;2024-03-02T05:19:36;8.50;99.90
64209;DHT22;50527;52.414;13.226;2024-03-02T05:22:02;8.40;99.90
64209;DHT22;50527;52.414;13.226;2024-03-02T05:24:28;8.40;99.90
64209;DHT22;50527;52.414;13.226;2024-03-02T05:26:54;8.50;99.90
64209;DHT22;50527;52.414;13.226;2024-03-02T05:29:19;8.40;99.90
64209;DHT22;50527;52.414;13.226;2024-03-02T05:31:45;8.50;99.90
64209;DHT22;50527;52.414;13.226;2024-03-02T05:34:10;8.50;99.90
64209;DHT22;50527;52.414;13.226;2024-03-02T05:36:36;8.40;99.90
64209;DHT22;50527;52.414;13.226;2024-03-02T05:39:02;8.40;99.90
64209;DHT22;50527;52.414;13.226;2024-03-02T05:41:30;8.30;99.90
64209;DHT22;50527;52.414;13.226;2024-03-02T05:43:56;8.40;99.90
64209;DHT22;50527;52.414;13.226;2024-03-02T05:46:21;8.30;99.90
64209;DHT22;50527;52.414;13.226;2024-03-02T05:48:47;8.40;99.90
64209;DHT22;50527;52.414;13.226;2024-03-02T05:51:12;8.40;99.90
64209;DHT22;50527;52.414;13.226;2024-03-02T05:53:38;8.40;99.90
64209;DHT22;50527;52.414;13.226;2024-03-02T05:56:04;8.40;99.90
64209;DHT22;50527;52.414;13.226;2024-03-02T05:58:30;8.20;99.90
64209;DHT22;50527;52.414;13.226;2024-03-02T06:01:14;8.30;99.90
64209;DHT22;50527;52.414;13.226;2024-03-02T06:03:40;8.30;99.90
64209;DHT22;50527;52.414;13.226;2024-03-02T06:06:05;8.30;99.90
64209;DHT22;50527;52.414;13.226;2024-03-02T06:08:31;8.40;99.90
64209;DHT22;50527;52.414;13.226;2024-03-02T06:10:56;8.40;99.90
64209;DHT22;50527;52.414;13.226;2024-03-02T06:13:22;8.40;99.90
64209;DHT22;50527;52.414;13.226;2024-03-02T06:15:48;8.40;99.90
64209;DHT22;50527;52.414;13.226;2024-03-02T06:18:13;8.30;99.90
64209;DHT22;50527;52.414;13.226;2024-03-02T06:20:39;8.30;99.90
64209;DHT22;50527;52.414;13.226;2024-03-02T06:23:05;8.20;99.90
64209;DHT22;50527;52.414;13.226;2024-03-02T06:25:31;8.30;99.90
64209;DHT22;50527;52.414;13.226;2024-03-02T06:27:56;8.30;99.90
64209;DHT22;50527;52.414;13.226;2024-03-02T06:30:22;8.40;99.90
64209;DHT22;50527;52.414;13.226;2024-03-02T06:32:47;8.40;99.90
64209;DHT22;50527;52.414;13.226;2024-03-02T06:35:13;8.40;99.90
64209;DHT22;50527;52.414;13.226;2024-03-02T06:37:38;8.50;99.90
64209;DHT22;50527;52.414;13.226;2024-03-02T06:40:08;8.50;99.90
64209;DHT22;50527;52.414;13.226;2024-03-02T06:42:34;8.50;99.90
64209;DHT22;50527;52.414;13.226;2024-03-02T06:45:00;8.50;99.90
64209;DHT22;50527;52.414;13.226;2024-03-02T06:47:25;8.60;99.90
64209;DHT22;50527;52.414;13.226;2024-03-02T06:49:51;8.60;99.90
64209;DHT22;50527;52.414;13.226;2024-03-02T06:52:16;8.60;99.90
64209;DHT22;50527;52.414;13.226;2024-03-02T06:54:42;8.60;99.90
64209;DHT22;50527;52.414;13.226;2024-03-02T06:57:07;8.60;99.90
64209;DHT22;50527;52.414;13.226;2024-03-02T06:59:33;8.70;99.90
64209;DHT22;50527;52.414;13.226;2024-03-02T07:01:59;8.60;99.90
64209;DHT22;50527;52.414;13.226;2024-03-02T07:04:24;8.50;99.90
64209;DHT22;50527;52.414;13.226;2024-03-02T07:06:50;8.40;99.90
64209;DHT22;50527;52.414;13.226;2024-03-02T07:09:16;8.40;99.90
64209;DHT22;50527;52.414;13.226;2024-03-02T07:11:42;8.40;99.90
64209;DHT22;50527;52.414;13.226;2024-03-02T07:14:07;8.50;99.90
64209;DHT22;50527;52.414;13.226;2024-03-02T07:16:33;8.40;99.90
64209;DHT22;50527;52.414;13.226;2024-03-02T07:19:00;8.40;99.90
64209;DHT22;50527;52.414;13.226;2024-03-02T07:21:27;8.40;99.90
64209;DHT22;50527;52.414;13.226;2024-03-02T07:23:52;8.50;99.90
64209;DHT22;50527;52.414;13.226;2024-03-02T07:26:18;8.60;99.90
64209;DHT22;50527;52.414;13.226;2024-03-02T07:28:46;8.50;99.90
64209;DHT22;50527;52.414;13.226;2024-03-02T07:31:13;8.50;99.90
64209;DHT22;50527;52.414;13.226;2024-03-02T07:33:38;8.50;99.90
64209;DHT22;50527;52.414;13.226;2024-03-02T07:36:04;8.50;99.90
64209;DHT22;50527;52.414;13.226;2024-03-02T07:38:29;8.50;99.90
64209;DHT22;50527;52.414;13.226;2024-03-02T07:40:55;8.60;99.90
64209;DHT22;50527;52.414;13.226;2024-03-02T07:43:21;8.70;99.90
64209;DHT22;50527;52.414;13.226;2024-03-02T07:45:47;8.60;99.90
64209;DHT22;50527;52.414;13.226;2024-03-02T07:48:13;8.60;99.90
64209;DHT22;50527;52.414;13.226;2024-03-02T07:50:39;8.70;99.90
64209;DHT22;50527;52.414;13.226;2024-03-02T07:53:05;8.70;99.90
64209;DHT22;50527;52.414;13.226;2024-03-02T07:55:31;8.70;99.90
64209;DHT22;50527;52.414;13.226;2024-03-02T07:57:57;8.70;99.90
64209;DHT22;50527;52.414;13.226;2024-03-02T08:00:23;8.70;99.90
64209;DHT22;50527;52.414;13.226;2024-03-02T08:02:50;8.80;99.90
64209;DHT22;50527;52.414;13.226;2024-03-02T08:05:16;8.80;99.90
64209;DHT22;50527;52.414;13.226;2024-03-02T08:07:43;8.90;99.90
64209;DHT22;50527;52.414;13.226;2024-03-02T08:10:09;8.90;99.90
64209;DHT22;50527;52.414;13.226;2024-03-02T08:12:35;9.00;99.90
64209;DHT22;50527;52.414;13.226;2024-03-02T08:15:00;9.00;99.90
64209;DHT22;50527;52.414;13.226;2024-03-02T08:17:26;9.00;99.90
64209;DHT22;50527;52.414;13.226;2024-03-02T08:19:52;9.00;99.90
64209;DHT22;50527;52.414;13.226;2024-03-02T08:22:18;9.10;99.90
64209;DHT22;50527;52.414;13.226;2024-03-02T08:24:43;9.00;99.90
64209;DHT22;50527;52.414;13.226;2024-03-02T08:27:09;9.00;99.90
64209;DHT22;50527;52.414;13.226;2024-03-02T08:29:35;8.90;99.90
64209;DHT22;50527;52.414;13.226;2024-03-02T08:32:00;8.90;99.90
64209;DHT22;50527;52.414;13.226;2024-03-02T08:34:26;8.90;99.90
64209;DHT22;50527;52.414;13.226;2024-03-02T08:36:51;8.90;99.90
64209;DHT22;50527;52.414;13.226;2024-03-02T08:39:17;9.00;99.90
64209;DHT22;50527;52.414;13.226;2024-03-02T08:41:45;9.00;99.90
64209;DHT22;50527;52.414;13.226;2024-03-02T08:44:12;9.00;99.90
64209;DHT22;50527;52.414;13.226;2024-03-02T08:46:38;9.00;99.90
64209;DHT22;50527;52.414;13.226;2024-03-02T08:49:04;9.00;99.90
64209;DHT22;50527;52.414;13.226;2024-03-02T08:51:30;9.10;99.90
64209;DHT22;50527;52.414;13.226;2024-03-02T08:53:59;9.10;99.90
64209;DHT22;50527;52.414;13.226;2024-03-02T08:56:25;9.10;99.90
64209;DHT22;50527;52.414;13.226;2024-03-02T08:58:51;9.20;99.90
64209;DHT22;50527;52.414;13.226;2024-03-02T09:01:17;9.20;99.90
64209;DHT22;50527;52.414;13.226;2024-03-02T09:03:43;9.10;99.90
64209;DHT22;50527;52.414;13.226;2024-03-02T09:06:10;9.10;99.90
64209;DHT22;50527;52.414;13.226;2024-03-02T09:08:35;9.10;99.90
64209;DHT22;50527;52.414;13.226;2024-03-02T09:11:04;9.10;99.90
64209;DHT22;50527;52.414;13.226;2024-03-02T09:13:30;9.10;99.90
64209;DHT22;50527;52.414;13.226;2024-03-02T09:15:56;9.10;99.90
64209;DHT22;50527;52.414;13.226;2024-03-02T09:18:21;9.10;99.90
64209;DHT22;50527;52.414;13.226;2024-03-02T09:20:47;9.10;99.90
64209;DHT22;50527;52.414;13.226;2024-03-02T09:23:12;9.20;99.90
64209;DHT22;50527;52.414;13.226;2024-03-02T09:25:38;9.20;99.90
64209;DHT22;50527;52.414;13.226;2024-03-02T09:28:04;9.30;99.90
64209;DHT22;50527;52.414;13.226;2024-03-02T09:30:29;9.30;99.90
64209;DHT22;50527;52.414;13.226;2024-03-02T09:32:55;9.30;99.90
64209;DHT22;50527;52.414;13.226;2024-03-02T09:35:20;9.30;99.90
64209;DHT22;50527;52.414;13.226;2024-03-02T09:37:45;9.30;99.90
64209;DHT22;50527;52.414;13.226;2024-03-02T09:40:12;9.30;99.90
64209;DHT22;50527;52.414;13.226;2024-03-02T09:42:38;9.40;99.90
64209;DHT22;50527;52.414;13.226;2024-03-02T09:45:05;9.40;99.90
64209;DHT22;50527;52.414;13.226;2024-03-02T09:47:30;9.50;99.90
64209;DHT22;50527;52.414;13.226;2024-03-02T09:49:56;9.60;99.90
64209;DHT22;50527;52.414;13.226;2024-03-02T09:52:24;9.70;99.90
64209;DHT22;50527;52.414;13.226;2024-03-02T09:54:50;9.80;99.90
64209;DHT22;50527;52.414;13.226;2024-03-02T09:57:16;9.90;99.90
64209;DHT22;50527;52.414;13.226;2024-03-02T09:59:42;10.00;99.90
64209;DHT22;50527;52.414;13.226;2024-03-02T10:02:07;10.10;99.90
64209;DHT22;50527;52.414;13.226;2024-03-02T10:04:33;10.10;99.90
64209;DHT22;50527;52.414;13.226;2024-03-02T10:09:38;10.20;99.90
64209;DHT22;50527;52.414;13.226;2024-03-02T10:12:05;10.10;99.90
64209;DHT22;50527;52.414;13.226;2024-03-02T10:14:31;10.10;99.90
64209;DHT22;50527;52.414;13.226;2024-03-02T10:17:04;10.20;99.90
64209;DHT22;50527;52.414;13.226;2024-03-02T10:19:30;10.20;99.90
64209;DHT22;50527;52.414;13.226;2024-03-02T10:21:58;10.20;99.90
64209;DHT22;50527;52.414;13.226;2024-03-02T10:24:24;10.20;99.90
64209;DHT22;50527;52.414;13.226;2024-03-02T10:26:51;10.30;99.90
64209;DHT22;50527;52.414;13.226;2024-03-02T10:29:17;10.30;99.90
64209;DHT22;50527;52.414;13.226;2024-03-02T10:31:46;10.50;99.90
64209;DHT22;50527;52.414;13.226;2024-03-02T10:34:12;10.60;99.90
64209;DHT22;50527;52.414;13.226;2024-03-02T10:36:41;10.80;99.90
64209;DHT22;50527;52.414;13.226;2024-03-02T10:39:07;10.90;99.90
64209;DHT22;50527;52.414;13.226;2024-03-02T10:41:37;11.00;99.90
64209;DHT22;50527;52.414;13.226;2024-03-02T10:44:07;11.10;99.90
64209;DHT22;50527;52.414;13.226;2024-03-02T10:46:36;11.30;99.90
64209;DHT22;50527;52.414;13.226;2024-03-02T10:49:03;11.30;99.90
64209;DHT22;50527;52.414;13.226;2024-03-02T10:51:30;11.40;99.90
64209;DHT22;50527;52.414;13.226;2024-03-02T10:54:02;11.40;99.90
64209;DHT22;50527;52.414;13.226;2024-03-02T10:56:39;11.30;99.90
64209;DHT22;50527;52.414;13.226;2024-03-02T10:59:08;11.40;99.90
64209;DHT22;50527;52.414;13.226;2024-03-02T11:01:34;11.30;99.90
64209;DHT22;50527;52.414;13.226;2024-03-02T11:04:04;11.20;99.90
64209;DHT22;50527;52.414;13.226;2024-03-02T11:06:32;11.30;99.90
64209;DHT22;50527;52.414;13.226;2024-03-02T11:09:00;11.40;99.90
64209;DHT22;50527;52.414;13.226;2024-03-02T11:11:32;11.50;99.90
64209;DHT22;50527;52.414;13.226;2024-03-02T11:14:02;11.60;99.90
64209;DHT22;50527;52.414;13.226;2024-03-02T11:16:37;11.60;99.90
64209;DHT22;50527;52.414;13.226;2024-03-02T11:19:10;11.70;99.90
64209;DHT22;50527;52.414;13.226;2024-03-02T11:21:36;11.90;99.90
64209;DHT22;50527;52.414;13.226;2024-03-02T11:26:47;12.10;99.50
64209;DHT22;50527;52.414;13.226;2024-03-02T11:32:05;12.40;98.90
64209;DHT22;50527;52.414;13.226;2024-03-02T11:34:34;12.60;97.60
64209;DHT22;50527;52.414;13.226;2024-03-02T11:37:03;12.60;97.80
64209;DHT22;50527;52.414;13.226;2024-03-02T11:39:29;12.60;97.30
64209;DHT22;50527;52.414;13.226;2024-03-02T11:41:56;12.70;97.30
64209;DHT22;50527;52.414;13.226;2024-03-02T11:44:28;12.70;98.40
64209;DHT22;50527;52.414;13.226;2024-03-02T11:47:01;12.80;97.20
64209;DHT22;50527;52.414;13.226;2024-03-02T11:52:05;12.60;95.60
64209;DHT22;50527;52.414;13.226;2024-03-02T11:54:33;12.70;95.90
64209;DHT22;50527;52.414;13.226;2024-03-02T11:57:02;12.70;95.70
64209;DHT22;50527;52.414;13.226;2024-03-02T11:59:29;12.70;95.50
64209;DHT22;50527;52.414;13.226;2024-03-02T12:01:55;12.80;96.30
64209;DHT22;50527;52.414;13.226;2024-03-02T12:04:21;12.80;95.80
64209;DHT22;50527;52.414;13.226;2024-03-02T12:06:55;12.80;95.10
64209;DHT22;50527;52.414;13.226;2024-03-02T12:09:21;12.80;95.40
64209;DHT22;50527;52.414;13.226;2024-03-02T12:11:47;12.90;95.80
64209;DHT22;50527;52.414;13.226;2024-03-02T12:14:12;13.00;95.40
64209;DHT22;50527;52.414;13.226;2024-03-02T12:16:38;13.10;94.80
64209;DHT22;50527;52.414;13.226;2024-03-02T12:19:08;13.30;96.40
64209;DHT22;50527;52.414;13.226;2024-03-02T12:21:33;13.40;95.20
64209;DHT22;50527;52.414;13.226;2024-03-02T12:24:00;13.50;94.20
64209;DHT22;50527;52.414;13.226;2024-03-02T12:26:26;13.60;93.70
64209;DHT22;50527;52.414;13.226;2024-03-02T12:28:51;13.50;93.60
64209;DHT22;50527;52.414;13.226;2024-03-02T12:31:17;13.50;93.70
64209;DHT22;50527;52.414;13.226;2024-03-02T12:33:43;13.50;94.10
64209;DHT22;50527;52.414;13.226;2024-03-02T12:36:12;13.60;93.60
64209;DHT22;50527;52.414;13.226;2024-03-02T12:38:43;13.70;93.30
64209;DHT22;50527;52.414;13.226;2024-03-02T12:41:09;13.80;93.30
64209;DHT22;50527;52.414;13.226;2024-03-02T12:43:34;13.70;92.10
64209;DHT22;50527;52.414;13.226;2024-03-02T12:46:00;13.60;92.80
64209;DHT22;50527;52.414;13.226;2024-03-02T12:48:26;13.80;93.10
64209;DHT22;50527;52.414;13.226;2024-03-02T12:50:52;13.80;92.50
64209;DHT22;50527;52.414;13.226;2024-03-02T12:53:17;13.90;91.40
64209;DHT22;50527;52.414;13.226;2024-03-02T12:55:43;13.90;90.60
64209;DHT22;50527;52.414;13.226;2024-03-02T12:58:17;13.70;90.60
64209;DHT22;50527;52.414;13.226;2024-03-02T13:00:42;13.60;90.30
64209;DHT22;50527;52.414;13.226;2024-03-02T13:03:07;13.50;91.20
64209;DHT22;50527;52.414;13.226;2024-03-02T13:05:33;13.50;92.20
64209;DHT22;50527;52.414;13.226;2024-03-02T13:07:59;13.40;92.20
64209;DHT22;50527;52.414;13.226;2024-03-02T13:10:28;13.30;93.30
64209;DHT22;50527;52.414;13.226;2024-03-02T13:12:54;13.30;93.80
64209;DHT22;50527;52.414;13.226;2024-03-02T13:15:21;13.30;93.10
64209;DHT22;50527;52.414;13.226;2024-03-02T13:17:46;13.40;93.60
64209;DHT22;50527;52.414;13.226;2024-03-02T13:20:12;13.50;92.90
64209;DHT22;50527;52.414;13.226;2024-03-02T13:22:39;13.60;93.90
64209;DHT22;50527;52.414;13.226;2024-03-02T13:25:05;13.60;92.10
64209;DHT22;50527;52.414;13.226;2024-03-02T13:27:31;13.50;92.20
64209;DHT22;50527;52.414;13.226;2024-03-02T13:29:57;13.50;92.50
64209;DHT22;50527;52.414;13.226;2024-03-02T13:32:24;13.40;92.10
64209;DHT22;50527;52.414;13.226;2024-03-02T13:34:51;13.20;92.10
64209;DHT22;50527;52.414;13.226;2024-03-02T13:37:16;13.30;92.10
64209;DHT22;50527;52.414;13.226;2024-03-02T13:39:42;13.30;92.50
64209;DHT22;50527;52.414;13.226;2024-03-02T13:42:09;13.30;92.70
64209;DHT22;50527;52.414;13.226;2024-03-02T13:44:35;13.30;92.40
64209;DHT22;50527;52.414;13.226;2024-03-02T13:47:01;13.30;91.80
64209;DHT22;50527;52.414;13.226;2024-03-02T13:49:26;13.30;91.90
64209;DHT22;50527;52.414;13.226;2024-03-02T13:52:11;13.20;91.70
64209;DHT22;50527;52.414;13.226;2024-03-02T13:54:42;13.30;92.20
64209;DHT22;50527;52.414;13.226;2024-03-02T13:57:08;13.40;91.70
64209;DHT22;50527;52.414;13.226;2024-03-02T13:59:34;13.40;91.10
64209;DHT22;50527;52.414;13.226;2024-03-02T14:02:01;13.40;92.10
64209;DHT22;50527;52.414;13.226;2024-03-02T14:04:26;13.40;91.60
64209;DHT22;50527;52.414;13.226;2024-03-02T14:06:52;13.40;90.50
64209;DHT22;50527;52.414;13.226;2024-03-02T14:09:18;13.40;90.60
64209;DHT22;50527;52.414;13.226;2024-03-02T14:11:45;13.40;91.40
64209;DHT22;50527;52.414;13.226;2024-03-02T14:14:11;13.30;90.80
64209;DHT22;50527;52.414;13.226;2024-03-02T14:16:36;13.30;91.10
64209;DHT22;50527;52.414;13.226;2024-03-02T14:19:02;13.30;91.00
64209;DHT22;50527;52.414;13.226;2024-03-02T14:21:30;13.20;90.80
64209;DHT22;50527;52.414;13.226;2024-03-02T14:23:55;13.20;90.80
64209;DHT22;50527;52.414;13.226;2024-03-02T14:26:21;13.20;90.20
64209;DHT22;50527;52.414;13.226;2024-03-02T14:28:46;13.20;90.40
64209;DHT22;50527;52.414;13.226;2024-03-02T14:31:12;13.20;90.80
64209;DHT22;50527;52.414;13.226;2024-03-02T14:33:38;13.20;91.30
64209;DHT22;50527;52.414;13.226;2024-03-02T14:36:04;13.20;90.60
64209;DHT22;50527;52.414;13.226;2024-03-02T14:38:30;13.20;90.40
64209;DHT22;50527;52.414;13.226;2024-03-02T14:40:55;13.10;90.30
64209;DHT22;50527;52.414;13.226;2024-03-02T14:43:22;13.20;90.90
64209;DHT22;50527;52.414;13.226;2024-03-02T14:45:47;13.20;90.50
64209;DHT22;50527;52.414;13.226;2024-03-02T14:48:13;13.20;90.60
64209;DHT22;50527;52.414;13.226;2024-03-02T14:50:39;13.30;90.60
64209;DHT22;50527;52.414;13.226;2024-03-02T14:53:04;13.30;89.40
64209;DHT22;50527;52.414;13.226;2024-03-02T14:55:32;13.30;90.40
64209;DHT22;50527;52.414;13.226;2024-03-02T14:57:59;13.30;90.30
64209;DHT22;50527;52.414;13.226;2024-03-02T15:00:25;13.30;89.70
64209;DHT22;50527;52.414;13.226;2024-03-02T15:02:50;13.20;89.30
64209;DHT22;50527;52.414;13.226;2024-03-02T15:05:16;13.20;89.90
64209;DHT22;50527;52.414;13.226;2024-03-02T15:07:41;13.20;88.80
64209;DHT22;50527;52.414;13.226;2024-03-02T15:10:07;13.20;90.40
64209;DHT22;50527;52.414;13.226;2024-03-02T15:12:33;13.20;90.20
64209;DHT22;50527;52.414;13.226;2024-03-02T15:14:58;13.30;89.50
64209;DHT22;50527;52.414;13.226;2024-03-02T15:17:24;13.30;90.60
64209;DHT22;50527;52.414;13.226;2024-03-02T15:19:50;13.30;89.20
64209;DHT22;50527;52.414;13.226;2024-03-02T15:22:15;13.30;89.40
64209;DHT22;50527;52.414;13.226;2024-03-02T15:24:41;13.30;89.40
64209;DHT22;50527;52.414;13.226;2024-03-02T15:27:07;13.40;90.10
64209;DHT22;50527;52.414;13.226;2024-03-02T15:29:34;13.40;90.80
64209;DHT22;50527;52.414;13.226;2024-03-02T15:32:00;13.40;90.80
64209;DHT22;50527;52.414;13.226;2024-03-02T15:34:26;13.40;89.30